createdAt,value
2018-09-04T00:01:02.863Z,18.27
2018-09-04T00:04:07.157Z,18.28
2018-09-04T00:07:11.132Z,18.29
2018-09-04T00:10:15.460Z,18.33
2018-09-04T00:13:19.156Z,18.30
2018-09-04T00:16:23.099Z,18.27
2018-09-04T00:19:26.827Z,18.27
2018-09-04T00:22:30.525Z,18.25
2018-09-04T00:25:34.398Z,18.24
2018-09-04T00:28:37.993Z,18.17
2018-09-04T00:31:41.774Z,18.12
2018-09-04T00:34:45.547Z,18.18
2018-09-04T00:37:49.217Z,18.14
2018-09-04T00:40:52.907Z,18.10
2018-09-04T00:43:56.567Z,18.03
2018-09-04T00:47:00.407Z,18.02
2018-09-04T00:50:04.148Z,17.96
2018-09-04T00:53:08.272Z,17.93
2018-09-04T00:56:11.921Z,17.83
2018-09-04T00:59:15.639Z,17.76
2018-09-04T01:02:19.359Z,17.72
2018-09-04T01:05:23.029Z,17.63
2018-09-04T01:08:26.685Z,17.58
2018-09-04T01:11:30.371Z,17.50
2018-09-04T01:14:33.988Z,17.47
2018-09-04T01:17:37.713Z,17.47
2018-09-04T01:20:41.357Z,17.50
2018-09-04T01:23:45.072Z,17.44
2018-09-04T01:26:48.795Z,17.38
2018-09-04T01:29:52.402Z,17.29
2018-09-04T01:32:56.094Z,17.22
2018-09-04T01:35:59.747Z,17.16
2018-09-04T01:39:03.549Z,17.07
2018-09-04T01:42:07.198Z,17.08
2018-09-04T01:45:10.818Z,17.04
2018-09-04T01:48:14.988Z,16.99
2018-09-04T01:51:18.748Z,16.96
2018-09-04T01:54:22.344Z,16.90
2018-09-04T01:57:25.981Z,16.95
2018-09-04T02:00:29.658Z,16.91
2018-09-04T02:03:33.310Z,16.89
2018-09-04T02:06:36.963Z,16.91
2018-09-04T02:09:40.613Z,16.88
2018-09-04T02:12:44.404Z,16.96
2018-09-04T02:15:48.373Z,16.95
2018-09-04T02:18:52.005Z,16.98
2018-09-04T02:21:55.692Z,16.91
2018-09-04T02:24:59.529Z,16.90
2018-09-04T02:28:03.380Z,17.01
2018-09-04T02:31:07.000Z,16.98
2018-09-04T02:34:10.638Z,16.91
2018-09-04T02:37:14.209Z,16.88
2018-09-04T02:40:17.830Z,16.96
2018-09-04T02:43:21.464Z,16.91
2018-09-04T02:46:25.169Z,16.92
2018-09-04T02:49:28.955Z,16.82
2018-09-04T02:52:32.882Z,16.87
2018-09-04T02:55:36.590Z,16.82
2018-09-04T02:58:40.469Z,16.79
2018-09-04T03:01:44.083Z,16.76
2018-09-04T03:04:47.700Z,16.77
2018-09-04T03:07:51.448Z,16.73
2018-09-04T03:10:55.326Z,16.66
2018-09-04T03:13:59.087Z,16.66
2018-09-04T03:17:02.675Z,16.61
2018-09-04T03:20:06.364Z,16.56
2018-09-04T03:23:10.133Z,16.57
2018-09-04T03:26:13.740Z,16.58
2018-09-04T03:29:17.414Z,16.56
2018-09-04T03:32:21.049Z,16.48
2018-09-04T03:35:24.688Z,16.42
2018-09-04T03:38:28.418Z,16.52
2018-09-04T03:41:32.090Z,16.49
2018-09-04T03:44:35.800Z,16.46
2018-09-04T03:47:39.510Z,16.37
2018-09-04T03:50:43.280Z,16.30
2018-09-04T03:53:46.935Z,16.19
2018-09-04T03:56:50.670Z,16.15
2018-09-04T03:59:54.390Z,16.02
2018-09-04T04:02:58.161Z,15.92
2018-09-04T04:06:01.901Z,15.85
2018-09-04T04:09:07.944Z,15.81
2018-09-04T04:12:11.734Z,15.77
2018-09-04T04:15:15.454Z,15.71
2018-09-04T04:18:19.360Z,15.68
2018-09-04T04:21:23.001Z,15.66
2018-09-04T04:24:26.687Z,15.67
2018-09-04T04:27:30.405Z,15.65
2018-09-04T04:30:34.059Z,15.58
2018-09-04T04:33:37.679Z,15.56
2018-09-04T04:36:41.316Z,15.55
2018-09-04T04:39:45.014Z,15.56
2018-09-04T04:42:48.705Z,15.59
2018-09-04T04:45:52.354Z,15.68
2018-09-04T04:48:56.020Z,15.66
2018-09-04T04:51:59.820Z,15.66
2018-09-04T04:55:03.485Z,15.67
2018-09-04T04:58:07.089Z,15.68
2018-09-04T05:01:10.819Z,15.74
2018-09-04T05:04:14.498Z,15.82
2018-09-04T05:07:18.089Z,15.96
2018-09-04T05:10:21.867Z,16.06
2018-09-04T05:13:25.647Z,16.17
2018-09-04T05:16:29.421Z,16.29
2018-09-04T05:19:33.089Z,16.61
2018-09-04T05:22:36.812Z,16.80
2018-09-04T05:25:40.545Z,17.11
2018-09-04T05:28:44.143Z,17.39
2018-09-04T05:31:52.204Z,17.60
2018-09-04T05:34:55.949Z,17.88
2018-09-04T05:37:59.605Z,17.98
2018-09-04T05:41:03.189Z,18.02
2018-09-04T05:44:06.893Z,17.95
2018-09-04T05:47:10.756Z,17.78
2018-09-04T05:50:14.350Z,17.60
2018-09-04T05:53:18.066Z,17.51
2018-09-04T05:56:21.704Z,17.63
2018-09-04T05:59:25.341Z,17.80
2018-09-04T06:02:30.615Z,18.18
2018-09-04T06:05:34.320Z,18.28
2018-09-04T06:08:37.956Z,18.41
2018-09-04T06:11:42.134Z,18.49
2018-09-04T06:14:45.820Z,18.51
2018-09-04T06:17:49.439Z,19.00
2018-09-04T06:20:53.121Z,19.10
2018-09-04T06:23:56.712Z,19.08
2018-09-04T06:27:00.371Z,19.23
2018-09-04T06:30:04.327Z,19.46
2018-09-04T06:33:07.957Z,19.12
2018-09-04T06:36:11.602Z,19.35
2018-09-04T06:39:15.297Z,19.27
2018-09-04T06:42:19.138Z,19.47
2018-09-04T06:45:22.771Z,19.52
2018-09-04T06:48:26.404Z,19.46
2018-09-04T06:51:30.126Z,19.47
2018-09-04T06:54:33.874Z,19.47
2018-09-04T06:57:37.515Z,19.88
2018-09-04T07:00:41.216Z,20.15
2018-09-04T07:03:44.837Z,20.27
2018-09-04T07:06:48.462Z,20.57
2018-09-04T07:09:52.195Z,20.35
2018-09-04T07:12:55.812Z,20.65
2018-09-04T07:15:59.458Z,19.89
2018-09-04T07:19:03.327Z,19.94
2018-09-04T07:22:07.038Z,19.58
2018-09-04T07:25:10.775Z,20.00
2018-09-04T07:28:15.191Z,19.99
2018-09-04T07:31:18.911Z,20.06
2018-09-04T07:34:22.481Z,20.31
2018-09-04T07:37:26.120Z,20.42
2018-09-04T07:40:29.805Z,20.51
2018-09-04T07:43:33.402Z,20.65
2018-09-04T07:46:37.499Z,20.62
2018-09-04T07:49:41.171Z,20.68
2018-09-04T07:52:44.833Z,21.02
2018-09-04T07:55:48.575Z,21.04
2018-09-04T07:58:52.222Z,20.92
2018-09-04T08:01:55.903Z,20.87
2018-09-04T08:04:59.556Z,20.96
2018-09-04T08:08:03.197Z,21.10
2018-09-04T08:11:06.980Z,21.22
2018-09-04T08:14:10.598Z,21.11
2018-09-04T08:17:14.219Z,21.06
2018-09-04T08:20:17.974Z,21.10
2018-09-04T08:23:21.582Z,21.37
2018-09-04T08:26:25.461Z,21.84
2018-09-04T08:29:29.155Z,21.78
2018-09-04T08:32:32.763Z,21.66
2018-09-04T08:35:36.408Z,21.57
2018-09-04T08:38:45.381Z,21.83
2018-09-04T08:41:49.129Z,21.96
2018-09-04T08:44:52.948Z,21.37
2018-09-04T08:47:59.307Z,21.48
2018-09-04T08:51:02.917Z,21.88
2018-09-04T08:54:06.901Z,22.32
2018-09-04T08:57:10.540Z,22.10
2018-09-04T09:00:15.162Z,22.07
2018-09-04T09:03:18.872Z,21.99
2018-09-04T09:06:22.438Z,21.82
2018-09-04T09:09:26.156Z,22.09
2018-09-04T09:12:29.911Z,22.33
2018-09-04T09:15:33.538Z,22.60
2018-09-04T09:18:37.234Z,22.57
2018-09-04T09:21:41.393Z,22.53
2018-09-04T09:24:45.013Z,22.62
2018-09-04T09:27:48.772Z,22.64
2018-09-04T09:30:52.376Z,22.76
2018-09-04T09:33:56.045Z,23.23
2018-09-04T09:36:59.754Z,23.43
2018-09-04T09:40:03.569Z,23.09
2018-09-04T09:43:07.509Z,22.97
2018-09-04T09:46:11.328Z,23.20
2018-09-04T09:49:15.049Z,23.37
2018-09-04T09:52:18.714Z,23.28
2018-09-04T09:55:22.409Z,23.36
2018-09-04T09:58:26.109Z,23.97
2018-09-04T10:01:35.999Z,23.86
2018-09-04T10:04:39.675Z,23.97
2018-09-04T10:07:43.503Z,23.74
2018-09-04T10:10:47.183Z,23.74
2018-09-04T10:13:51.195Z,23.61
2018-09-04T10:16:55.109Z,24.00
2018-09-04T10:19:58.923Z,24.21
2018-09-04T10:23:02.599Z,24.08
2018-09-04T10:26:06.387Z,24.08
2018-09-04T10:29:10.174Z,24.40
2018-09-04T10:32:13.892Z,24.55
2018-09-04T10:35:17.643Z,24.58
2018-09-04T10:38:24.272Z,24.48
2018-09-04T10:41:27.969Z,24.25
2018-09-04T10:44:33.072Z,24.20
2018-09-04T10:47:36.669Z,24.38
2018-09-04T10:50:40.568Z,24.85
2018-09-04T10:53:44.297Z,25.02
2018-09-04T10:56:48.098Z,24.88
2018-09-04T10:59:51.758Z,24.93
2018-09-04T11:02:55.537Z,24.91
2018-09-04T11:05:59.276Z,24.97
2018-09-04T11:09:03.024Z,24.89
2018-09-04T11:12:06.693Z,24.82
2018-09-04T11:15:10.618Z,24.91
2018-09-04T11:18:14.222Z,25.29
2018-09-04T11:21:17.894Z,25.19
2018-09-04T11:24:21.624Z,24.95
2018-09-04T11:27:25.522Z,25.15
2018-09-04T11:30:29.168Z,24.83
2018-09-04T11:33:32.878Z,25.00
2018-09-04T11:36:36.599Z,25.27
2018-09-04T11:39:40.367Z,25.27
2018-09-04T11:42:44.113Z,25.48
2018-09-04T11:45:47.855Z,25.18
2018-09-04T11:48:51.668Z,25.08
2018-09-04T11:51:55.490Z,25.38
2018-09-04T11:54:59.200Z,25.30
2018-09-04T11:58:02.854Z,25.39
2018-09-04T12:01:10.383Z,25.57
2018-09-04T12:04:14.179Z,25.44
2018-09-04T12:07:17.809Z,25.67
2018-09-04T12:10:21.519Z,25.67
2018-09-04T12:13:31.558Z,25.88
2018-09-04T12:16:35.356Z,25.84
2018-09-04T12:19:49.104Z,25.97
2018-09-04T12:22:52.880Z,25.87
2018-09-04T12:25:57.930Z,25.67
2018-09-04T12:29:01.599Z,25.49
2018-09-04T12:32:05.315Z,25.57
2018-09-04T12:35:08.998Z,25.73
2018-09-04T12:38:15.206Z,25.89
2018-09-04T12:41:19.326Z,25.91
2018-09-04T12:44:23.059Z,25.89
2018-09-04T12:47:26.700Z,25.63
2018-09-04T12:50:30.492Z,25.65
2018-09-04T12:53:34.728Z,25.75
2018-09-04T12:56:38.449Z,25.88
2018-09-04T12:59:42.127Z,26.02
2018-09-04T13:02:45.954Z,25.82
2018-09-04T13:05:49.625Z,26.04
2018-09-04T13:08:53.366Z,25.68
2018-09-04T13:11:57.136Z,25.82
2018-09-04T13:15:00.885Z,26.09
2018-09-04T13:18:04.922Z,26.04
2018-09-04T13:21:08.579Z,26.12
2018-09-04T13:24:12.301Z,26.31
2018-09-04T13:27:16.111Z,26.07
2018-09-04T13:30:19.824Z,26.08
2018-09-04T13:33:23.569Z,26.20
2018-09-04T13:36:27.219Z,26.09
2018-09-04T13:39:30.991Z,26.13
2018-09-04T13:42:34.622Z,26.22
2018-09-04T13:45:38.288Z,26.03
2018-09-04T13:48:42.009Z,26.17
2018-09-04T13:51:45.659Z,26.31
2018-09-04T13:54:49.515Z,26.49
2018-09-04T13:57:53.237Z,26.24
2018-09-04T14:00:56.967Z,26.50
2018-09-04T14:04:00.723Z,26.02
2018-09-04T14:07:04.981Z,26.12
2018-09-04T14:10:09.009Z,26.36
2018-09-04T14:13:13.306Z,26.35
2018-09-04T14:16:19.657Z,26.17
2018-09-04T14:19:23.319Z,26.35
2018-09-04T14:22:28.372Z,26.13
2018-09-04T14:25:32.264Z,26.40
2018-09-04T14:28:42.863Z,26.20
2018-09-04T14:31:42.667Z,26.40
2018-09-04T14:34:46.672Z,26.37
2018-09-04T14:37:50.350Z,26.65
2018-09-04T14:40:54.116Z,26.35
2018-09-04T14:43:57.832Z,26.24
2018-09-04T14:47:01.678Z,26.19
2018-09-04T14:50:05.759Z,26.24
2018-09-04T14:53:09.916Z,26.16
2018-09-04T14:56:13.852Z,26.36
2018-09-04T14:59:17.709Z,26.41
2018-09-04T15:02:22.101Z,26.36
2018-09-04T15:05:25.812Z,26.40
2018-09-04T15:08:29.557Z,26.22
2018-09-04T15:11:33.336Z,26.19
2018-09-04T15:14:37.086Z,26.17
2018-09-04T15:17:40.893Z,26.09
2018-09-04T15:20:44.767Z,26.37
2018-09-04T15:23:48.807Z,26.17
2018-09-04T15:26:52.466Z,26.10
2018-09-04T15:29:56.174Z,26.26
2018-09-04T15:32:59.896Z,26.39
2018-09-04T15:36:03.897Z,26.21
2018-09-04T15:39:07.991Z,26.41
2018-09-04T15:42:11.666Z,26.06
2018-09-04T15:45:15.381Z,26.07
2018-09-04T15:48:19.122Z,26.05
2018-09-04T15:51:22.874Z,25.77
2018-09-04T15:54:26.613Z,25.71
2018-09-04T15:57:30.310Z,25.76
2018-09-04T16:00:34.037Z,26.02
2018-09-04T16:03:37.700Z,26.08
2018-09-04T16:06:41.522Z,26.07
2018-09-04T16:09:45.438Z,26.03
2018-09-04T16:12:49.458Z,26.07
2018-09-04T16:15:53.126Z,25.96
2018-09-04T16:18:56.836Z,26.04
2018-09-04T16:22:01.028Z,25.86
2018-09-04T16:25:04.925Z,25.71
2018-09-04T16:28:08.593Z,25.67
2018-09-04T16:31:12.340Z,25.56
2018-09-04T16:34:16.202Z,25.51
2018-09-04T16:37:19.818Z,25.71
2018-09-04T16:40:23.580Z,25.44
2018-09-04T16:43:27.595Z,25.45
2018-09-04T16:46:31.382Z,25.47
2018-09-04T16:49:35.552Z,25.31
2018-09-04T16:52:39.342Z,25.25
2018-09-04T16:55:43.338Z,25.12
2018-09-04T16:58:47.091Z,24.94
2018-09-04T17:01:50.871Z,24.93
2018-09-04T17:04:54.733Z,24.92
2018-09-04T17:07:58.562Z,25.12
2018-09-04T17:11:02.337Z,25.01
2018-09-04T17:14:07.613Z,24.89
2018-09-04T17:17:11.322Z,25.03
2018-09-04T17:20:15.099Z,24.93
2018-09-04T17:23:18.761Z,24.74
2018-09-04T17:26:23.571Z,24.50
2018-09-04T17:29:27.179Z,24.32
2018-09-04T17:32:32.818Z,24.41
2018-09-04T17:35:36.732Z,24.16
2018-09-04T17:38:41.278Z,23.86
2018-09-04T17:41:45.029Z,23.80
2018-09-04T17:44:48.754Z,24.04
2018-09-04T17:47:52.504Z,23.94
2018-09-04T17:50:56.349Z,23.79
2018-09-04T17:54:00.281Z,23.59
2018-09-04T17:57:04.128Z,23.51
2018-09-04T18:00:08.520Z,23.42
2018-09-04T18:03:12.386Z,23.30
2018-09-04T18:06:16.322Z,23.02
2018-09-04T18:09:20.049Z,22.96
2018-09-04T18:12:23.793Z,22.75
2018-09-04T18:15:27.438Z,22.43
2018-09-04T18:18:31.210Z,22.25
2018-09-04T18:21:34.957Z,22.09
2018-09-04T18:24:38.893Z,22.20
2018-09-04T18:27:42.977Z,21.93
2018-09-04T18:30:46.782Z,21.73
2018-09-04T18:33:50.496Z,21.68
2018-09-04T18:36:54.193Z,21.43
2018-09-04T18:39:58.014Z,21.20
2018-09-04T18:43:01.732Z,21.11
2018-09-04T18:46:05.649Z,21.18
2018-09-04T18:49:10.004Z,21.19
2018-09-04T18:52:13.833Z,21.20
2018-09-04T18:55:17.607Z,21.03
2018-09-04T18:58:21.448Z,20.86
2018-09-04T19:01:25.357Z,20.62
2018-09-04T19:04:29.053Z,20.55
2018-09-04T19:07:33.007Z,20.49
2018-09-04T19:10:36.747Z,20.42
2018-09-04T19:13:40.733Z,20.48
2018-09-04T19:16:44.571Z,20.47
2018-09-04T19:19:48.378Z,20.22
2018-09-04T19:22:52.314Z,20.07
2018-09-04T19:25:56.109Z,20.07
2018-09-04T19:29:00.015Z,20.18
2018-09-04T19:32:03.885Z,20.13
2018-09-04T19:35:08.270Z,20.00
2018-09-04T19:38:12.068Z,20.12
2018-09-04T19:41:15.942Z,20.05
2018-09-04T19:44:19.802Z,20.06
2018-09-04T19:47:23.754Z,20.01
2018-09-04T19:50:27.793Z,19.99
2018-09-04T19:53:31.559Z,19.86
2018-09-04T19:56:35.459Z,19.81
2018-09-04T19:59:39.233Z,19.91
2018-09-04T20:02:43.190Z,19.88
2018-09-04T20:05:47.030Z,19.80
2018-09-04T20:08:50.977Z,19.72
2018-09-04T20:11:54.794Z,19.71
2018-09-04T20:15:02.786Z,19.55
2018-09-04T20:18:07.694Z,19.61
2018-09-04T20:21:11.395Z,19.69
2018-09-04T20:24:15.599Z,19.60
2018-09-04T20:27:19.538Z,19.56
2018-09-04T20:30:24.230Z,19.45
2018-09-04T20:33:28.463Z,19.42
2018-09-04T20:36:32.671Z,19.52
2018-09-04T20:39:36.646Z,19.80
2018-09-04T20:42:42.195Z,19.84
2018-09-04T20:45:46.327Z,19.80
2018-09-04T20:48:50.105Z,19.61
2018-09-04T20:53:10.726Z,19.59
2018-09-04T20:56:14.865Z,19.57
2018-09-04T20:59:29.360Z,19.47
2018-09-04T21:02:44.151Z,19.47
2018-09-04T21:05:58.993Z,19.41
2018-09-04T21:09:13.013Z,19.23
2018-09-04T21:12:16.673Z,19.09
2018-09-04T21:15:20.325Z,19.10
2018-09-04T21:18:24.044Z,19.04
2018-09-04T21:21:27.714Z,19.01
2018-09-04T21:24:31.483Z,18.92
2018-09-04T21:27:35.209Z,18.73
2018-09-04T21:30:38.840Z,18.59
2018-09-04T21:33:42.540Z,18.56
2018-09-04T21:36:46.241Z,18.49
2018-09-04T21:39:49.958Z,18.29
2018-09-04T21:42:53.590Z,18.19
2018-09-04T21:45:57.403Z,18.09
2018-09-04T21:49:01.074Z,18.13
2018-09-04T21:52:04.763Z,18.10
2018-09-04T21:55:08.818Z,18.04
2018-09-04T21:58:12.447Z,17.94
2018-09-04T22:01:18.003Z,17.81
2018-09-04T22:04:21.738Z,17.78
2018-09-04T22:07:25.395Z,17.64
2018-09-04T22:10:28.996Z,17.56
2018-09-04T22:13:32.614Z,17.49
2018-09-04T22:16:36.219Z,17.52
2018-09-04T22:19:39.804Z,17.56
2018-09-04T22:22:43.473Z,17.51
2018-09-04T22:25:47.043Z,17.48
2018-09-04T22:28:50.673Z,17.44
2018-09-04T22:31:54.383Z,17.37
2018-09-04T22:34:57.986Z,17.33
2018-09-04T22:38:02.183Z,17.21
2018-09-04T22:41:05.945Z,17.20
2018-09-04T22:44:09.586Z,17.10
2018-09-04T22:47:13.239Z,17.02
2018-09-04T22:50:22.270Z,16.98
2018-09-04T22:53:25.891Z,17.02
2018-09-04T22:56:29.579Z,16.93
2018-09-04T22:59:33.185Z,16.87
2018-09-04T23:02:36.871Z,16.80
2018-09-04T23:05:40.544Z,16.75
2018-09-04T23:08:44.176Z,16.73
2018-09-04T23:11:48.002Z,16.64
2018-09-04T23:14:51.641Z,16.58
2018-09-04T23:17:55.343Z,16.48
2018-09-04T23:20:58.988Z,16.52
2018-09-04T23:24:02.647Z,16.46
2018-09-04T23:27:06.990Z,16.47
2018-09-04T23:30:10.619Z,16.37
2018-09-04T23:33:14.325Z,16.33
2018-09-04T23:36:18.402Z,16.27
2018-09-04T23:39:22.026Z,16.22
2018-09-04T23:42:29.921Z,16.17
2018-09-04T23:45:33.547Z,16.10
2018-09-04T23:48:37.122Z,16.08
2018-09-04T23:51:40.917Z,15.99
2018-09-04T23:54:44.607Z,15.90
2018-09-04T23:57:48.202Z,15.90
